sensor_id;sensor_type;location;lat;lon;timestamp;pressure;altitude;pressure_sealevel;temperature;humidity
70930;BME280;58588;48.102;19.682;2023-06-10T00:00:29;99117.88;;;16.44;100.00
70930;BME280;58588;48.102;19.682;2023-06-10T00:03:32;99116.47;;;16.53;100.00
70930;BME280;58588;48.102;19.682;2023-06-10T00:06:33;99122.41;;;16.50;100.00
70930;BME280;58588;48.102;19.682;2023-06-10T00:09:38;99111.84;;;16.53;100.00
70930;BME280;58588;48.102;19.682;2023-06-10T00:12:40;99119.78;;;16.55;100.00
70930;BME280;58588;48.102;19.682;2023-06-10T00:15:42;99118.13;;;16.54;100.00
70930;BME280;58588;48.102;19.682;2023-06-10T00:18:44;99117.66;;;16.57;100.00
70930;BME280;58588;48.102;19.682;2023-06-10T00:21:47;99120.84;;;16.54;100.00
70930;BME280;58588;48.102;19.682;2023-06-10T00:24:51;99118.13;;;16.66;100.00
70930;BME280;58588;48.102;19.682;2023-06-10T00:27:52;99116.88;;;16.68;100.00
70930;BME280;58588;48.102;19.682;2023-06-10T00:30:54;99118.06;;;16.72;100.00
70930;BME280;58588;48.102;19.682;2023-06-10T00:33:57;99111.28;;;16.63;100.00
70930;BME280;58588;48.102;19.682;2023-06-10T00:36:59;99113.19;;;16.63;100.00
70930;BME280;58588;48.102;19.682;2023-06-10T00:40:04;99112.69;;;16.66;100.00
70930;BME280;58588;48.102;19.682;2023-06-10T00:43:06;99112.56;;;16.60;100.00
70930;BME280;58588;48.102;19.682;2023-06-10T00:46:09;99111.19;;;16.70;100.00
70930;BME280;58588;48.102;19.682;2023-06-10T00:49:12;99105.28;;;16.73;100.00
70930;BME280;58588;48.102;19.682;2023-06-10T00:52:14;99103.88;;;16.70;100.00
70930;BME280;58588;48.102;19.682;2023-06-10T00:55:20;99103.00;;;16.58;100.00
70930;BME280;58588;48.102;19.682;2023-06-10T00:58:22;99099.69;;;16.56;100.00
70930;BME280;58588;48.102;19.682;2023-06-10T01:01:25;99093.88;;;16.64;100.00
70930;BME280;58588;48.102;19.682;2023-06-10T01:04:27;99091.53;;;16.68;100.00
70930;BME280;58588;48.102;19.682;2023-06-10T01:07:34;99100.28;;;16.58;100.00
70930;BME280;58588;48.102;19.682;2023-06-10T01:10:43;99089.00;;;16.43;100.00
70930;BME280;58588;48.102;19.682;2023-06-10T01:13:45;99093.59;;;16.42;100.00
70930;BME280;58588;48.102;19.682;2023-06-10T01:16:48;99094.00;;;16.57;100.00
70930;BME280;58588;48.102;19.682;2023-06-10T01:19:56;99097.31;;;16.59;100.00
70930;BME280;58588;48.102;19.682;2023-06-10T01:23:00;99093.66;;;16.66;100.00
70930;BME280;58588;48.102;19.682;2023-06-10T01:26:06;99089.97;;;16.60;100.00
70930;BME280;58588;48.102;19.682;2023-06-10T01:29:14;99093.88;;;16.64;100.00
70930;BME280;58588;48.102;19.682;2023-06-10T01:32:23;99095.06;;;16.56;100.00
70930;BME280;58588;48.102;19.682;2023-06-10T01:35:29;99091.03;;;16.47;100.00
70930;BME280;58588;48.102;19.682;2023-06-10T01:38:39;99095.88;;;16.45;100.00
70930;BME280;58588;48.102;19.682;2023-06-10T01:41:42;99105.81;;;16.51;100.00
70930;BME280;58588;48.102;19.682;2023-06-10T01:44:44;99107.25;;;16.54;100.00
70930;BME280;58588;48.102;19.682;2023-06-10T01:47:47;99111.03;;;16.53;100.00
70930;BME280;58588;48.102;19.682;2023-06-10T01:50:49;99115.69;;;16.22;100.00
70930;BME280;58588;48.102;19.682;2023-06-10T01:53:52;99120.41;;;16.15;100.00
70930;BME280;58588;48.102;19.682;2023-06-10T01:56:54;99121.59;;;16.19;100.00
70930;BME280;58588;48.102;19.682;2023-06-10T01:59:56;99124.72;;;16.35;100.00
70930;BME280;58588;48.102;19.682;2023-06-10T02:02:58;99128.53;;;16.45;100.00
70930;BME280;58588;48.102;19.682;2023-06-10T02:06:00;99122.72;;;16.42;100.00
70930;BME280;58588;48.102;19.682;2023-06-10T02:09:04;99126.41;;;16.47;100.00
70930;BME280;58588;48.102;19.682;2023-06-10T02:12:07;99127.50;;;16.58;100.00
70930;BME280;58588;48.102;19.682;2023-06-10T02:15:10;99125.72;;;16.64;100.00
70930;BME280;58588;48.102;19.682;2023-06-10T02:18:12;99121.81;;;16.59;100.00
70930;BME280;58588;48.102;19.682;2023-06-10T02:21:14;99118.13;;;16.54;100.00
70930;BME280;58588;48.102;19.682;2023-06-10T02:24:18;99117.66;;;16.57;100.00
70930;BME280;58588;48.102;19.682;2023-06-10T02:27:20;99113.41;;;16.61;100.00
70930;BME280;58588;48.102;19.682;2023-06-10T02:30:22;99116.25;;;16.66;100.00
70930;BME280;58588;48.102;19.682;2023-06-10T02:33:24;99116.63;;;16.70;100.00
70930;BME280;58588;48.102;19.682;2023-06-10T02:36:27;99112.41;;;16.74;100.00
70930;BME280;58588;48.102;19.682;2023-06-10T02:39:31;99110.13;;;16.71;100.00
70930;BME280;58588;48.102;19.682;2023-06-10T02:42:33;99113.44;;;16.73;100.00
70930;BME280;58588;48.102;19.682;2023-06-10T02:45:35;99110.72;;;16.73;100.00
70930;BME280;58588;48.102;19.682;2023-06-10T02:48:41;99113.91;;;16.70;100.00
70930;BME280;58588;48.102;19.682;2023-06-10T02:51:44;99116.03;;;16.68;100.00
70930;BME280;58588;48.102;19.682;2023-06-10T02:54:47;99118.88;;;16.73;100.00
70930;BME280;58588;48.102;19.682;2023-06-10T02:57:50;99127.50;;;16.70;100.00
70930;BME280;58588;48.102;19.682;2023-06-10T03:00:52;99123.63;;;16.77;100.00
70930;BME280;58588;48.102;19.682;2023-06-10T03:03:54;99126.34;;;16.77;100.00
70930;BME280;58588;48.102;19.682;2023-06-10T03:06:56;99123.31;;;16.85;100.00
70930;BME280;58588;48.102;19.682;2023-06-10T03:10:00;99132.41;;;16.91;100.00
70930;BME280;58588;48.102;19.682;2023-06-10T03:13:02;99133.84;;;16.94;100.00
70930;BME280;58588;48.102;19.682;2023-06-10T03:16:04;99131.69;;;16.96;100.00
70930;BME280;58588;48.102;19.682;2023-06-10T03:19:06;99130.16;;;17.00;100.00
70930;BME280;58588;48.102;19.682;2023-06-10T03:22:10;99127.78;;;16.80;100.00
70930;BME280;58588;48.102;19.682;2023-06-10T03:25:13;99139.50;;;16.80;100.00
70930;BME280;58588;48.102;19.682;2023-06-10T03:28:16;99131.56;;;16.79;100.00
70930;BME280;58588;48.102;19.682;2023-06-10T03:31:18;99133.81;;;16.82;100.00
70930;BME280;58588;48.102;19.682;2023-06-10T03:34:20;99128.38;;;16.82;100.00
70930;BME280;58588;48.102;19.682;2023-06-10T03:37:24;99126.25;;;16.96;100.00
70930;BME280;58588;48.102;19.682;2023-06-10T03:40:27;99132.41;;;17.15;100.00
70930;BME280;58588;48.102;19.682;2023-06-10T03:43:31;99131.69;;;17.31;100.00
70930;BME280;58588;48.102;19.682;2023-06-10T03:46:33;99128.25;;;17.24;100.00
70930;BME280;58588;48.102;19.682;2023-06-10T03:49:35;99130.03;;;17.42;100.00
70930;BME280;58588;48.102;19.682;2023-06-10T03:52:38;99127.28;;;17.42;100.00
70930;BME280;58588;48.102;19.682;2023-06-10T03:55:43;99137.25;;;17.48;100.00
70930;BME280;58588;48.102;19.682;2023-06-10T03:58:45;99133.06;;;17.45;100.00
70930;BME280;58588;48.102;19.682;2023-06-10T04:01:47;99135.22;;;17.43;100.00
70930;BME280;58588;48.102;19.682;2023-06-10T04:04:49;99136.75;;;17.51;100.00
70930;BME280;58588;48.102;19.682;2023-06-10T04:07:51;99139.44;;;17.62;100.00
70930;BME280;58588;48.102;19.682;2023-06-10T04:10:55;99139.84;;;17.43;100.00
70930;BME280;58588;48.102;19.682;2023-06-10T04:13:57;99145.50;;;17.64;100.00
70930;BME280;58588;48.102;19.682;2023-06-10T04:16:59;99136.59;;;17.81;100.00
70930;BME280;58588;48.102;19.682;2023-06-10T04:20:01;99137.06;;;17.89;100.00
70930;BME280;58588;48.102;19.682;2023-06-10T04:23:07;99128.03;;;17.89;100.00
70930;BME280;58588;48.102;19.682;2023-06-10T04:26:10;99127.50;;;18.04;100.00
70930;BME280;58588;48.102;19.682;2023-06-10T04:29:12;99128.44;;;18.09;100.00
70930;BME280;58588;48.102;19.682;2023-06-10T04:32:14;99132.28;;;17.97;100.00
70930;BME280;58588;48.102;19.682;2023-06-10T04:35:17;99136.34;;;17.94;100.00
70930;BME280;58588;48.102;19.682;2023-06-10T04:38:19;99137.44;;;18.10;100.00
70930;BME280;58588;48.102;19.682;2023-06-10T04:41:22;99129.47;;;18.20;100.00
70930;BME280;58588;48.102;19.682;2023-06-10T04:44:25;99126.78;;;18.08;100.00
70930;BME280;58588;48.102;19.682;2023-06-10T04:47:27;99130.06;;;17.94;100.00
70930;BME280;58588;48.102;19.682;2023-06-10T04:50:29;99125.13;;;18.07;100.00
70930;BME280;58588;48.102;19.682;2023-06-10T04:53:33;99131.56;;;18.30;100.00
70930;BME280;58588;48.102;19.682;2023-06-10T04:56:36;99131.16;;;18.38;100.00
70930;BME280;58588;48.102;19.682;2023-06-10T04:59:39;99128.22;;;18.28;100.00
70930;BME280;58588;48.102;19.682;2023-06-10T05:02:41;99119.66;;;18.53;100.00
70930;BME280;58588;48.102;19.682;2023-06-10T05:05:43;99116.03;;;18.64;100.00
70930;BME280;58588;48.102;19.682;2023-06-10T05:08:45;99117.44;;;18.66;100.00
70930;BME280;58588;48.102;19.682;2023-06-10T05:11:48;99119.09;;;18.51;100.00
70930;BME280;58588;48.102;19.682;2023-06-10T05:14:50;99119.22;;;18.73;100.00
70930;BME280;58588;48.102;19.682;2023-06-10T05:17:52;99123.25;;;18.87;100.00
70930;BME280;58588;48.102;19.682;2023-06-10T05:20:54;99117.06;;;19.08;100.00
70930;BME280;58588;48.102;19.682;2023-06-10T05:23:56;99116.53;;;19.11;100.00
70930;BME280;58588;48.102;19.682;2023-06-10T05:26:59;99112.31;;;19.04;100.00
70930;BME280;58588;48.102;19.682;2023-06-10T05:30:01;99111.97;;;19.17;100.00
70930;BME280;58588;48.102;19.682;2023-06-10T05:33:05;99104.28;;;19.14;100.00
70930;BME280;58588;48.102;19.682;2023-06-10T05:36:07;99124.16;;;19.09;100.00
70930;BME280;58588;48.102;19.682;2023-06-10T05:39:09;99114.63;;;18.95;100.00
70930;BME280;58588;48.102;19.682;2023-06-10T05:42:13;99120.53;;;19.04;100.00
70930;BME280;58588;48.102;19.682;2023-06-10T05:45:15;99125.16;;;19.20;100.00
70930;BME280;58588;48.102;19.682;2023-06-10T05:48:17;99117.50;;;19.22;100.00
70930;BME280;58588;48.102;19.682;2023-06-10T05:51:20;99119.00;;;19.13;100.00
70930;BME280;58588;48.102;19.682;2023-06-10T05:54:22;99114.69;;;19.34;100.00
70930;BME280;58588;48.102;19.682;2023-06-10T05:57:25;99115.38;;;19.46;100.00
70930;BME280;58588;48.102;19.682;2023-06-10T06:00:27;99123.66;;;19.68;100.00
70930;BME280;58588;48.102;19.682;2023-06-10T06:03:29;99119.59;;;19.53;100.00
70930;BME280;58588;48.102;19.682;2023-06-10T06:06:31;99118.69;;;19.09;100.00
70930;BME280;58588;48.102;19.682;2023-06-10T06:09:33;99120.63;;;19.31;100.00
70930;BME280;58588;48.102;19.682;2023-06-10T06:12:37;99117.38;;;19.72;100.00
70930;BME280;58588;48.102;19.682;2023-06-10T06:15:39;99113.75;;;20.11;100.00
70930;BME280;58588;48.102;19.682;2023-06-10T06:18:41;99118.09;;;20.34;100.00
70930;BME280;58588;48.102;19.682;2023-06-10T06:21:43;99119.59;;;20.46;100.00
70930;BME280;58588;48.102;19.682;2023-06-10T06:24:45;99126.91;;;20.41;100.00
70930;BME280;58588;48.102;19.682;2023-06-10T06:27:49;99129.09;;;20.66;100.00
70930;BME280;58588;48.102;19.682;2023-06-10T06:30:51;99127.50;;;21.07;100.00
70930;BME280;58588;48.102;19.682;2023-06-10T06:33:53;99125.25;;;21.04;100.00
70930;BME280;58588;48.102;19.682;2023-06-10T06:36:55;99126.31;;;20.98;100.00
70930;BME280;58588;48.102;19.682;2023-06-10T06:39:58;99121.41;;;21.37;100.00
70930;BME280;58588;48.102;19.682;2023-06-10T06:43:01;99124.56;;;21.61;100.00
70930;BME280;58588;48.102;19.682;2023-06-10T06:46:03;99119.84;;;21.56;100.00
70930;BME280;58588;48.102;19.682;2023-06-10T06:49:05;99125.91;;;21.63;100.00
70930;BME280;58588;48.102;19.682;2023-06-10T06:52:07;99121.31;;;21.74;100.00
70930;BME280;58588;48.102;19.682;2023-06-10T06:55:09;99121.16;;;22.01;100.00
70930;BME280;58588;48.102;19.682;2023-06-10T06:58:13;99121.47;;;22.10;100.00
70930;BME280;58588;48.102;19.682;2023-06-10T07:01:15;99125.00;;;22.05;100.00
70930;BME280;58588;48.102;19.682;2023-06-10T07:04:17;99123.41;;;22.09;100.00
70930;BME280;58588;48.102;19.682;2023-06-10T07:07:20;99122.31;;;22.31;100.00
70930;BME280;58588;48.102;19.682;2023-06-10T07:10:34;99125.94;;;22.47;100.00
70930;BME280;58588;48.102;19.682;2023-06-10T07:13:37;99117.63;;;22.11;100.00
70930;BME280;58588;48.102;19.682;2023-06-10T07:16:39;99127.44;;;21.97;100.00
70930;BME280;58588;48.102;19.682;2023-06-10T07:19:41;99130.47;;;22.00;100.00
70930;BME280;58588;48.102;19.682;2023-06-10T07:22:43;99125.38;;;21.61;100.00
70930;BME280;58588;48.102;19.682;2023-06-10T07:25:45;99132.91;;;21.91;100.00
70930;BME280;58588;48.102;19.682;2023-06-10T07:28:49;99122.59;;;22.19;100.00
70930;BME280;58588;48.102;19.682;2023-06-10T07:31:51;99120.69;;;22.35;100.00
70930;BME280;58588;48.102;19.682;2023-06-10T07:34:53;99128.69;;;22.47;100.00
70930;BME280;58588;48.102;19.682;2023-06-10T07:37:55;99130.59;;;22.36;100.00
70930;BME280;58588;48.102;19.682;2023-06-10T07:40:58;99123.75;;;22.43;100.00
70930;BME280;58588;48.102;19.682;2023-06-10T07:44:01;99123.75;;;22.54;100.00
70930;BME280;58588;48.102;19.682;2023-06-10T07:47:04;99122.66;;;22.44;100.00
70930;BME280;58588;48.102;19.682;2023-06-10T07:50:06;99129.56;;;22.88;100.00
70930;BME280;58588;48.102;19.682;2023-06-10T07:53:08;99121.28;;;23.08;100.00
70930;BME280;58588;48.102;19.682;2023-06-10T07:56:10;99118.75;;;23.37;100.00
70930;BME280;58588;48.102;19.682;2023-06-10T07:59:15;99121.28;;;23.29;100.00
70930;BME280;58588;48.102;19.682;2023-06-10T08:02:17;99120.75;;;23.11;100.00
70930;BME280;58588;48.102;19.682;2023-06-10T08:05:19;99125.34;;;23.52;100.00
70930;BME280;58588;48.102;19.682;2023-06-10T08:08:22;99133.09;;;23.39;100.00
70930;BME280;58588;48.102;19.682;2023-06-10T08:11:24;99131.13;;;23.45;100.00
70930;BME280;58588;48.102;19.682;2023-06-10T08:14:29;99129.09;;;23.86;100.00
70930;BME280;58588;48.102;19.682;2023-06-10T08:17:31;99128.91;;;23.62;100.00
70930;BME280;58588;48.102;19.682;2023-06-10T08:20:33;99117.31;;;23.70;100.00
70930;BME280;58588;48.102;19.682;2023-06-10T08:23:35;99121.38;;;23.88;100.00
70930;BME280;58588;48.102;19.682;2023-06-10T08:26:38;99116.56;;;24.09;100.00
70930;BME280;58588;48.102;19.682;2023-06-10T08:29:42;99120.31;;;24.28;100.00
70930;BME280;58588;48.102;19.682;2023-06-10T08:32:44;99122.06;;;25.27;100.00
70930;BME280;58588;48.102;19.682;2023-06-10T08:35:46;99114.63;;;25.27;100.00
70930;BME280;58588;48.102;19.682;2023-06-10T08:38:48;99121.63;;;25.15;100.00
70930;BME280;58588;48.102;19.682;2023-06-10T08:42:00;99118.03;;;24.85;100.00
70930;BME280;58588;48.102;19.682;2023-06-10T08:45:07;99108.22;;;24.29;100.00
70930;BME280;58588;48.102;19.682;2023-06-10T08:48:14;99121.56;;;24.07;100.00
70930;BME280;58588;48.102;19.682;2023-06-10T08:51:19;99114.47;;;24.40;100.00
70930;BME280;58588;48.102;19.682;2023-06-10T08:54:22;99113.84;;;24.88;100.00
70930;BME280;58588;48.102;19.682;2023-06-10T08:57:27;99111.09;;;24.88;100.00
70930;BME280;58588;48.102;19.682;2023-06-10T09:00:31;99100.31;;;24.91;100.00
70930;BME280;58588;48.102;19.682;2023-06-10T09:03:33;99099.94;;;25.32;100.00
70930;BME280;58588;48.102;19.682;2023-06-10T09:06:36;99103.53;;;25.32;100.00
70930;BME280;58588;48.102;19.682;2023-06-10T09:09:39;99099.66;;;25.33;100.00
70930;BME280;58588;48.102;19.682;2023-06-10T09:12:43;99092.03;;;25.49;100.00
70930;BME280;58588;48.102;19.682;2023-06-10T09:15:47;99083.75;;;25.73;100.00
70930;BME280;58588;48.102;19.682;2023-06-10T09:18:49;99085.28;;;26.60;100.00
70930;BME280;58588;48.102;19.682;2023-06-10T09:21:55;99072.59;;;26.40;100.00
70930;BME280;58588;48.102;19.682;2023-06-10T09:25:04;99074.88;;;26.71;100.00
70930;BME280;58588;48.102;19.682;2023-06-10T09:28:13;99070.97;;;26.72;100.00
70930;BME280;58588;48.102;19.682;2023-06-10T09:31:17;99072.50;;;26.26;100.00
70930;BME280;58588;48.102;19.682;2023-06-10T09:34:25;99070.41;;;25.80;100.00
70930;BME280;58588;48.102;19.682;2023-06-10T09:37:28;99065.50;;;25.72;100.00
70930;BME280;58588;48.102;19.682;2023-06-10T09:40:31;99069.19;;;25.44;100.00
70930;BME280;58588;48.102;19.682;2023-06-10T09:43:41;99052.78;;;26.14;100.00
70930;BME280;58588;48.102;19.682;2023-06-10T09:46:49;99062.03;;;26.61;100.00
70930;BME280;58588;48.102;19.682;2023-06-10T09:49:51;99061.50;;;26.91;97.26
70930;BME280;58588;48.102;19.682;2023-06-10T09:52:54;99061.69;;;27.28;100.00
70930;BME280;58588;48.102;19.682;2023-06-10T09:55:57;99057.84;;;26.26;100.00
70930;BME280;58588;48.102;19.682;2023-06-10T09:58:59;99056.06;;;26.35;100.00
70930;BME280;58588;48.102;19.682;2023-06-10T10:02:03;99060.91;;;26.94;100.00
70930;BME280;58588;48.102;19.682;2023-06-10T10:05:06;99062.25;;;26.64;100.00
70930;BME280;58588;48.102;19.682;2023-06-10T10:08:08;99063.13;;;26.92;100.00
70930;BME280;58588;48.102;19.682;2023-06-10T10:11:10;99059.94;;;27.32;100.00
70930;BME280;58588;48.102;19.682;2023-06-10T10:14:13;99053.88;;;27.98;100.00
70930;BME280;58588;48.102;19.682;2023-06-10T10:17:20;99037.06;;;28.53;99.95
70930;BME280;58588;48.102;19.682;2023-06-10T10:20:27;99035.81;;;28.37;100.00
70930;BME280;58588;48.102;19.682;2023-06-10T10:23:33;99039.22;;;27.84;96.77
70930;BME280;58588;48.102;19.682;2023-06-10T10:26:37;99039.03;;;27.67;97.89
70930;BME280;58588;48.102;19.682;2023-06-10T10:29:40;99042.53;;;27.17;100.00
70930;BME280;58588;48.102;19.682;2023-06-10T10:32:52;99040.97;;;27.25;96.59
70930;BME280;58588;48.102;19.682;2023-06-10T10:35:58;99040.03;;;27.85;100.00
70930;BME280;58588;48.102;19.682;2023-06-10T10:39:01;99036.34;;;27.62;99.89
70930;BME280;58588;48.102;19.682;2023-06-10T10:42:04;99027.16;;;27.11;99.33
70930;BME280;58588;48.102;19.682;2023-06-10T10:45:10;99024.13;;;26.61;100.00
70930;BME280;58588;48.102;19.682;2023-06-10T10:48:15;99028.63;;;26.38;100.00
70930;BME280;58588;48.102;19.682;2023-06-10T10:51:17;99030.22;;;26.45;100.00
70930;BME280;58588;48.102;19.682;2023-06-10T10:54:28;99031.88;;;26.46;100.00
70930;BME280;58588;48.102;19.682;2023-06-10T10:57:30;99022.00;;;26.39;100.00
70930;BME280;58588;48.102;19.682;2023-06-10T11:00:34;99022.50;;;26.60;100.00
70930;BME280;58588;48.102;19.682;2023-06-10T11:03:42;99019.41;;;26.94;100.00
70930;BME280;58588;48.102;19.682;2023-06-10T11:06:52;99021.63;;;28.03;100.00
70930;BME280;58588;48.102;19.682;2023-06-10T11:09:58;99009.91;;;27.69;100.00
70930;BME280;58588;48.102;19.682;2023-06-10T11:13:05;99006.47;;;27.86;100.00
70930;BME280;58588;48.102;19.682;2023-06-10T11:16:08;99011.34;;;28.62;98.36
70930;BME280;58588;48.102;19.682;2023-06-10T11:19:34;99005.72;;;28.08;100.00
70930;BME280;58588;48.102;19.682;2023-06-10T11:22:58;98995.75;;;28.30;100.00
70930;BME280;58588;48.102;19.682;2023-06-10T11:26:17;99001.69;;;28.90;94.76
70930;BME280;58588;48.102;19.682;2023-06-10T11:29:20;99000.63;;;29.40;95.78
70930;BME280;58588;48.102;19.682;2023-06-10T11:32:22;99002.38;;;30.01;85.12
70930;BME280;58588;48.102;19.682;2023-06-10T11:35:26;98997.22;;;28.27;84.41
70930;BME280;58588;48.102;19.682;2023-06-10T11:38:28;98995.13;;;27.60;92.21
70930;BME280;58588;48.102;19.682;2023-06-10T11:41:31;98999.28;;;25.24;100.00
70930;BME280;58588;48.102;19.682;2023-06-10T11:44:33;99005.06;;;24.99;100.00
70930;BME280;58588;48.102;19.682;2023-06-10T11:47:38;99005.03;;;25.04;100.00
70930;BME280;58588;48.102;19.682;2023-06-10T11:50:41;99002.03;;;24.47;100.00
70930;BME280;58588;48.102;19.682;2023-06-10T11:53:44;99002.41;;;24.30;100.00
70930;BME280;58588;48.102;19.682;2023-06-10T11:56:46;99007.59;;;24.37;100.00
70930;BME280;58588;48.102;19.682;2023-06-10T11:59:49;99002.38;;;23.96;100.00
70930;BME280;58588;48.102;19.682;2023-06-10T12:02:57;98995.47;;;23.99;100.00
70930;BME280;58588;48.102;19.682;2023-06-10T12:06:02;98991.22;;;23.77;100.00
70930;BME280;58588;48.102;19.682;2023-06-10T12:09:05;98995.13;;;23.66;100.00
70930;BME280;58588;48.102;19.682;2023-06-10T12:12:08;98989.53;;;23.82;100.00
70930;BME280;58588;48.102;19.682;2023-06-10T12:15:23;98999.69;;;23.86;100.00
70930;BME280;58588;48.102;19.682;2023-06-10T12:18:25;99006.88;;;24.21;100.00
70930;BME280;58588;48.102;19.682;2023-06-10T12:21:29;99014.81;;;24.62;100.00
70930;BME280;58588;48.102;19.682;2023-06-10T12:24:31;99019.22;;;24.29;100.00
70930;BME280;58588;48.102;19.682;2023-06-10T12:27:34;99024.09;;;24.42;100.00
70930;BME280;58588;48.102;19.682;2023-06-10T12:30:37;99034.56;;;24.74;100.00
70930;BME280;58588;48.102;19.682;2023-06-10T12:33:39;99022.28;;;24.62;100.00
70930;BME280;58588;48.102;19.682;2023-06-10T12:36:49;99017.25;;;24.35;100.00
70930;BME280;58588;48.102;19.682;2023-06-10T12:39:51;99019.22;;;24.29;100.00
70930;BME280;58588;48.102;19.682;2023-06-10T12:42:54;99017.34;;;24.19;100.00
70930;BME280;58588;48.102;19.682;2023-06-10T12:46:08;99017.00;;;24.36;100.00
70930;BME280;58588;48.102;19.682;2023-06-10T12:49:19;99020.59;;;24.66;100.00
70930;BME280;58588;48.102;19.682;2023-06-10T12:52:22;99011.34;;;24.80;100.00
70930;BME280;58588;48.102;19.682;2023-06-10T12:55:24;99005.72;;;25.20;100.00
70930;BME280;58588;48.102;19.682;2023-06-10T12:58:27;98992.47;;;25.41;100.00
70930;BME280;58588;48.102;19.682;2023-06-10T13:01:29;98994.03;;;24.99;100.00
70930;BME280;58588;48.102;19.682;2023-06-10T13:04:31;98977.88;;;23.45;100.00
70930;BME280;58588;48.102;19.682;2023-06-10T13:07:35;98976.28;;;23.34;100.00
70930;BME280;58588;48.102;19.682;2023-06-10T13:10:37;98980.00;;;22.99;100.00
70930;BME280;58588;48.102;19.682;2023-06-10T13:13:40;98981.13;;;22.88;100.00
70930;BME280;58588;48.102;19.682;2023-06-10T13:16:42;98978.63;;;22.76;100.00
70930;BME280;58588;48.102;19.682;2023-06-10T13:19:45;98978.94;;;22.64;100.00
70930;BME280;58588;48.102;19.682;2023-06-10T13:22:48;98972.59;;;22.79;100.00
70930;BME280;58588;48.102;19.682;2023-06-10T13:25:50;98968.47;;;22.82;100.00
70930;BME280;58588;48.102;19.682;2023-06-10T13:28:53;98982.84;;;22.38;100.00
70930;BME280;58588;48.102;19.682;2023-06-10T13:31:55;98983.66;;;22.43;100.00
70930;BME280;58588;48.102;19.682;2023-06-10T13:34:57;98978.38;;;22.73;100.00
70930;BME280;58588;48.102;19.682;2023-06-10T13:38:00;98989.66;;;22.66;100.00
70930;BME280;58588;48.102;19.682;2023-06-10T13:41:03;98987.22;;;22.44;100.00
70930;BME280;58588;48.102;19.682;2023-06-10T13:44:05;98987.22;;;22.49;100.00
70930;BME280;58588;48.102;19.682;2023-06-10T13:47:07;98989.69;;;22.40;100.00
70930;BME280;58588;48.102;19.682;2023-06-10T13:50:09;98979.22;;;22.58;100.00
70930;BME280;58588;48.102;19.682;2023-06-10T13:53:13;98986.34;;;22.69;100.00
70930;BME280;58588;48.102;19.682;2023-06-10T13:56:16;98978.63;;;22.81;100.00
70930;BME280;58588;48.102;19.682;2023-06-10T13:59:19;98973.97;;;22.71;100.00
70930;BME280;58588;48.102;19.682;2023-06-10T14:02:21;98977.00;;;22.80;100.00
70930;BME280;58588;48.102;19.682;2023-06-10T14:05:23;98974.13;;;23.21;100.00
70930;BME280;58588;48.102;19.682;2023-06-10T14:08:26;98968.28;;;23.33;100.00
70930;BME280;58588;48.102;19.682;2023-06-10T14:11:29;98967.91;;;23.65;100.00
70930;BME280;58588;48.102;19.682;2023-06-10T14:14:31;98969.94;;;23.88;100.00
70930;BME280;58588;48.102;19.682;2023-06-10T14:17:33;98964.75;;;24.16;100.00
70930;BME280;58588;48.102;19.682;2023-06-10T14:20:35;98956.13;;;24.27;100.00
70930;BME280;58588;48.102;19.682;2023-06-10T14:23:39;98956.97;;;24.57;100.00
70930;BME280;58588;48.102;19.682;2023-06-10T14:26:42;98968.91;;;24.76;100.00
70930;BME280;58588;48.102;19.682;2023-06-10T14:29:44;98971.97;;;24.99;100.00
70930;BME280;58588;48.102;19.682;2023-06-10T14:32:46;98971.06;;;25.32;100.00
70930;BME280;58588;48.102;19.682;2023-06-10T14:35:48;98959.84;;;26.37;100.00
70930;BME280;58588;48.102;19.682;2023-06-10T14:38:51;98969.06;;;26.79;100.00
70930;BME280;58588;48.102;19.682;2023-06-10T14:41:54;98959.28;;;27.14;100.00
70930;BME280;58588;48.102;19.682;2023-06-10T14:44:56;98964.34;;;27.62;100.00
70930;BME280;58588;48.102;19.682;2023-06-10T14:47:58;98965.66;;;28.14;100.00
70930;BME280;58588;48.102;19.682;2023-06-10T14:51:00;98964.75;;;29.12;97.70
70930;BME280;58588;48.102;19.682;2023-06-10T14:54:04;98953.28;;;29.62;92.80
70930;BME280;58588;48.102;19.682;2023-06-10T14:57:06;98953.31;;;30.05;89.89
70930;BME280;58588;48.102;19.682;2023-06-10T15:00:09;98944.25;;;30.69;85.88
70930;BME280;58588;48.102;19.682;2023-06-10T15:03:11;98937.09;;;30.33;82.20
70930;BME280;58588;48.102;19.682;2023-06-10T15:06:13;98941.97;;;30.71;76.26
70930;BME280;58588;48.102;19.682;2023-06-10T15:09:19;98941.63;;;30.73;76.45
70930;BME280;58588;48.102;19.682;2023-06-10T15:12:21;98944.47;;;30.38;78.10
70930;BME280;58588;48.102;19.682;2023-06-10T15:15:24;98940.22;;;29.80;80.18
70930;BME280;58588;48.102;19.682;2023-06-10T15:18:26;98936.72;;;29.22;77.31
70930;BME280;58588;48.102;19.682;2023-06-10T15:21:28;98936.59;;;28.65;79.10
70930;BME280;58588;48.102;19.682;2023-06-10T15:24:32;98939.34;;;28.57;76.16
70930;BME280;58588;48.102;19.682;2023-06-10T15:27:34;98932.91;;;28.78;76.49
70930;BME280;58588;48.102;19.682;2023-06-10T15:30:36;98933.19;;;28.15;74.42
70930;BME280;58588;48.102;19.682;2023-06-10T15:33:38;98934.94;;;28.56;74.93
70930;BME280;58588;48.102;19.682;2023-06-10T15:36:40;98936.13;;;28.32;76.85
70930;BME280;58588;48.102;19.682;2023-06-10T15:39:43;98935.69;;;28.47;75.38
70930;BME280;58588;48.102;19.682;2023-06-10T15:42:45;98934.56;;;27.81;79.61
70930;BME280;58588;48.102;19.682;2023-06-10T15:45:47;98940.06;;;28.40;76.89